sensor_id;sensor_type;location;lat;lon;timestamp;temperature;humidity
1381;DHT22;684;48.342;10.096;2023-03-25T00:02:14;9.90;32.00
1381;DHT22;684;48.342;10.096;2023-03-25T00:04:41;9.90;32.10
1381;DHT22;684;48.342;10.096;2023-03-25T00:07:08;9.90;32.30
1381;DHT22;684;48.342;10.096;2023-03-25T00:09:35;9.90;32.30
1381;DHT22;684;48.342;10.096;2023-03-25T00:12:03;9.90;32.40
1381;DHT22;684;48.342;10.096;2023-03-25T00:14:30;10.00;32.00
1381;DHT22;684;48.342;10.096;2023-03-25T00:16:57;10.00;31.90
1381;DHT22;684;48.342;10.096;2023-03-25T00:19:25;10.00;31.50
1381;DHT22;684;48.342;10.096;2023-03-25T00:21:52;10.00;31.70
1381;DHT22;684;48.342;10.096;2023-03-25T00:24:19;9.90;31.80
1381;DHT22;684;48.342;10.096;2023-03-25T00:26:46;9.80;31.90
1381;DHT22;684;48.342;10.096;2023-03-25T00:29:15;9.70;32.10
1381;DHT22;684;48.342;10.096;2023-03-25T00:31:42;9.70;32.20
1381;DHT22;684;48.342;10.096;2023-03-25T00:34:09;9.70;32.00
1381;DHT22;684;48.342;10.096;2023-03-25T00:36:39;9.70;32.10
1381;DHT22;684;48.342;10.096;2023-03-25T00:39:06;9.60;32.00
1381;DHT22;684;48.342;10.096;2023-03-25T00:41:34;9.70;32.00
1381;DHT22;684;48.342;10.096;2023-03-25T00:44:02;9.60;31.90
1381;DHT22;684;48.342;10.096;2023-03-25T00:46:32;9.60;31.80
1381;DHT22;684;48.342;10.096;2023-03-25T00:48:59;9.50;31.90
1381;DHT22;684;48.342;10.096;2023-03-25T00:51:27;9.50;31.90
1381;DHT22;684;48.342;10.096;2023-03-25T00:53:57;9.40;31.60
1381;DHT22;684;48.342;10.096;2023-03-25T00:56:26;9.40;31.40
1381;DHT22;684;48.342;10.096;2023-03-25T00:58:53;9.50;31.40
1381;DHT22;684;48.342;10.096;2023-03-25T01:01:22;9.50;31.20
1381;DHT22;684;48.342;10.096;2023-03-25T01:03:54;9.50;31.10
1381;DHT22;684;48.342;10.096;2023-03-25T01:06:25;9.50;31.10
1381;DHT22;684;48.342;10.096;2023-03-25T01:08:56;9.50;31.00
1381;DHT22;684;48.342;10.096;2023-03-25T01:11:25;9.50;31.20
1381;DHT22;684;48.342;10.096;2023-03-25T01:13:53;9.50;31.30
1381;DHT22;684;48.342;10.096;2023-03-25T01:16:21;9.40;31.30
1381;DHT22;684;48.342;10.096;2023-03-25T01:18:48;9.50;31.30
1381;DHT22;684;48.342;10.096;2023-03-25T01:21:16;9.50;31.20
1381;DHT22;684;48.342;10.096;2023-03-25T01:23:43;9.50;31.20
1381;DHT22;684;48.342;10.096;2023-03-25T01:26:10;9.50;31.10
1381;DHT22;684;48.342;10.096;2023-03-25T01:28:38;9.60;31.00
1381;DHT22;684;48.342;10.096;2023-03-25T01:31:07;9.60;30.80
1381;DHT22;684;48.342;10.096;2023-03-25T01:33:34;9.60;30.60
1381;DHT22;684;48.342;10.096;2023-03-25T01:36:01;9.60;30.70
1381;DHT22;684;48.342;10.096;2023-03-25T01:38:29;9.70;30.70
1381;DHT22;684;48.342;10.096;2023-03-25T01:40:56;9.70;30.60
1381;DHT22;684;48.342;10.096;2023-03-25T01:43:24;9.70;30.80
1381;DHT22;684;48.342;10.096;2023-03-25T01:45:50;9.70;30.90
1381;DHT22;684;48.342;10.096;2023-03-25T01:48:20;9.80;31.70
1381;DHT22;684;48.342;10.096;2023-03-25T01:50:53;9.90;30.90
1381;DHT22;684;48.342;10.096;2023-03-25T01:53:21;10.00;30.80
1381;DHT22;684;48.342;10.096;2023-03-25T01:55:50;10.00;31.10
1381;DHT22;684;48.342;10.096;2023-03-25T01:58:20;10.10;31.70
1381;DHT22;684;48.342;10.096;2023-03-25T02:00:47;10.10;31.90
1381;DHT22;684;48.342;10.096;2023-03-25T02:03:15;10.10;33.10
1381;DHT22;684;48.342;10.096;2023-03-25T02:05:47;10.10;32.30
1381;DHT22;684;48.342;10.096;2023-03-25T02:08:17;10.00;32.20
1381;DHT22;684;48.342;10.096;2023-03-25T02:10:46;10.00;32.20
1381;DHT22;684;48.342;10.096;2023-03-25T02:13:16;9.90;32.60
1381;DHT22;684;48.342;10.096;2023-03-25T02:15:57;9.80;32.70
1381;DHT22;684;48.342;10.096;2023-03-25T02:18:35;9.80;33.20
1381;DHT22;684;48.342;10.096;2023-03-25T02:24:32;9.60;33.30
1381;DHT22;684;48.342;10.096;2023-03-25T02:33:32;9.20;34.10
1381;DHT22;684;48.342;10.096;2023-03-25T02:36:39;9.10;34.50
1381;DHT22;684;48.342;10.096;2023-03-25T02:39:18;9.00;34.90
1381;DHT22;684;48.342;10.096;2023-03-25T02:41:51;8.90;35.10
1381;DHT22;684;48.342;10.096;2023-03-25T02:44:25;8.90;35.40
1381;DHT22;684;48.342;10.096;2023-03-25T02:46:56;8.80;35.50
1381;DHT22;684;48.342;10.096;2023-03-25T02:49:27;8.80;35.60
1381;DHT22;684;48.342;10.096;2023-03-25T02:51:58;8.80;35.70
1381;DHT22;684;48.342;10.096;2023-03-25T02:54:29;8.80;35.90
1381;DHT22;684;48.342;10.096;2023-03-25T02:56:58;8.90;36.00
1381;DHT22;684;48.342;10.096;2023-03-25T02:59:27;9.00;36.10
1381;DHT22;684;48.342;10.096;2023-03-25T03:01:59;8.90;36.00
1381;DHT22;684;48.342;10.096;2023-03-25T03:04:26;8.90;35.80
1381;DHT22;684;48.342;10.096;2023-03-25T03:06:54;9.00;35.80
1381;DHT22;684;48.342;10.096;2023-03-25T03:09:31;9.10;35.60
1381;DHT22;684;48.342;10.096;2023-03-25T03:12:14;9.20;35.60
1381;DHT22;684;48.342;10.096;2023-03-25T03:14:54;9.20;35.90
1381;DHT22;684;48.342;10.096;2023-03-25T03:17:25;9.20;35.80
1381;DHT22;684;48.342;10.096;2023-03-25T03:19:56;9.30;35.90
1381;DHT22;684;48.342;10.096;2023-03-25T03:22:37;9.30;35.80
1381;DHT22;684;48.342;10.096;2023-03-25T03:25:15;9.30;35.90
1381;DHT22;684;48.342;10.096;2023-03-25T03:27:48;9.20;35.70
1381;DHT22;684;48.342;10.096;2023-03-25T03:30:20;9.20;35.80
1381;DHT22;684;48.342;10.096;2023-03-25T03:32:51;9.20;35.90
1381;DHT22;684;48.342;10.096;2023-03-25T03:35:25;9.10;36.20
1381;DHT22;684;48.342;10.096;2023-03-25T03:37:56;9.10;36.40
1381;DHT22;684;48.342;10.096;2023-03-25T03:40:27;9.00;36.60
1381;DHT22;684;48.342;10.096;2023-03-25T03:42:57;9.00;36.90
1381;DHT22;684;48.342;10.096;2023-03-25T03:45:28;9.00;37.10
1381;DHT22;684;48.342;10.096;2023-03-25T03:47:57;9.00;37.30
1381;DHT22;684;48.342;10.096;2023-03-25T03:50:30;9.00;37.40
1381;DHT22;684;48.342;10.096;2023-03-25T03:53:01;8.90;37.60
1381;DHT22;684;48.342;10.096;2023-03-25T03:55:36;9.00;37.50
1381;DHT22;684;48.342;10.096;2023-03-25T03:58:09;8.90;37.50
1381;DHT22;684;48.342;10.096;2023-03-25T04:00:42;8.90;37.90
1381;DHT22;684;48.342;10.096;2023-03-25T04:03:13;8.90;38.00
1381;DHT22;684;48.342;10.096;2023-03-25T04:05:43;8.90;38.10
1381;DHT22;684;48.342;10.096;2023-03-25T04:08:17;8.90;38.20
1381;DHT22;684;48.342;10.096;2023-03-25T04:10:52;8.90;38.10
1381;DHT22;684;48.342;10.096;2023-03-25T04:13:27;8.90;38.20
1381;DHT22;684;48.342;10.096;2023-03-25T04:15:56;9.00;38.20
1381;DHT22;684;48.342;10.096;2023-03-25T04:18:24;9.00;38.20
1381;DHT22;684;48.342;10.096;2023-03-25T04:20:53;9.10;38.10
1381;DHT22;684;48.342;10.096;2023-03-25T04:23:19;9.10;37.80
1381;DHT22;684;48.342;10.096;2023-03-25T04:25:48;9.10;37.60
1381;DHT22;684;48.342;10.096;2023-03-25T04:28:17;9.10;37.60
1381;DHT22;684;48.342;10.096;2023-03-25T04:30:44;9.00;37.70
1381;DHT22;684;48.342;10.096;2023-03-25T04:33:11;9.00;37.70
1381;DHT22;684;48.342;10.096;2023-03-25T04:35:39;9.00;37.40
1381;DHT22;684;48.342;10.096;2023-03-25T04:38:06;9.00;37.00
1381;DHT22;684;48.342;10.096;2023-03-25T04:40:33;9.00;36.70
1381;DHT22;684;48.342;10.096;2023-03-25T04:43:01;9.00;36.60
1381;DHT22;684;48.342;10.096;2023-03-25T04:45:28;8.90;36.60
1381;DHT22;684;48.342;10.096;2023-03-25T04:48:00;8.90;36.40
1381;DHT22;684;48.342;10.096;2023-03-25T04:50:31;8.90;36.30
1381;DHT22;684;48.342;10.096;2023-03-25T04:52:58;8.90;36.30
1381;DHT22;684;48.342;10.096;2023-03-25T04:55:26;8.90;36.40
1381;DHT22;684;48.342;10.096;2023-03-25T04:57:54;8.90;36.50
1381;DHT22;684;48.342;10.096;2023-03-25T05:00:24;8.80;36.20
1381;DHT22;684;48.342;10.096;2023-03-25T05:02:52;8.80;36.00
1381;DHT22;684;48.342;10.096;2023-03-25T05:05:21;8.80;35.90
1381;DHT22;684;48.342;10.096;2023-03-25T05:07:50;8.80;36.50
1381;DHT22;684;48.342;10.096;2023-03-25T05:10:19;8.70;35.60
1381;DHT22;684;48.342;10.096;2023-03-25T05:12:46;8.70;35.50
1381;DHT22;684;48.342;10.096;2023-03-25T05:15:13;8.70;35.30
1381;DHT22;684;48.342;10.096;2023-03-25T05:17:43;8.70;35.20
1381;DHT22;684;48.342;10.096;2023-03-25T05:20:11;8.70;34.60
1381;DHT22;684;48.342;10.096;2023-03-25T05:22:38;8.70;34.40
1381;DHT22;684;48.342;10.096;2023-03-25T05:25:08;8.70;33.50
1381;DHT22;684;48.342;10.096;2023-03-25T05:27:36;8.60;33.30
1381;DHT22;684;48.342;10.096;2023-03-25T05:30:04;8.60;33.00
1381;DHT22;684;48.342;10.096;2023-03-25T05:32:31;8.60;33.00
1381;DHT22;684;48.342;10.096;2023-03-25T05:35:00;8.60;33.10
1381;DHT22;684;48.342;10.096;2023-03-25T05:37:27;8.60;32.70
1381;DHT22;684;48.342;10.096;2023-03-25T05:39:54;8.60;32.50
1381;DHT22;684;48.342;10.096;2023-03-25T05:42:21;8.50;32.10
1381;DHT22;684;48.342;10.096;2023-03-25T05:44:48;8.50;32.20
1381;DHT22;684;48.342;10.096;2023-03-25T05:47:17;8.60;31.90
1381;DHT22;684;48.342;10.096;2023-03-25T05:49:46;8.50;31.20
1381;DHT22;684;48.342;10.096;2023-03-25T05:52:15;8.50;31.10
1381;DHT22;684;48.342;10.096;2023-03-25T05:54:42;8.50;31.20
1381;DHT22;684;48.342;10.096;2023-03-25T05:57:10;8.50;31.10
1381;DHT22;684;48.342;10.096;2023-03-25T05:59:37;8.50;30.70
1381;DHT22;684;48.342;10.096;2023-03-25T06:02:05;8.50;30.80
1381;DHT22;684;48.342;10.096;2023-03-25T06:04:33;8.40;30.50
1381;DHT22;684;48.342;10.096;2023-03-25T06:07:05;8.40;30.20
1381;DHT22;684;48.342;10.096;2023-03-25T06:09:35;8.40;29.80
1381;DHT22;684;48.342;10.096;2023-03-25T06:12:02;8.40;30.00
1381;DHT22;684;48.342;10.096;2023-03-25T06:14:29;8.40;29.90
1381;DHT22;684;48.342;10.096;2023-03-25T06:16:55;8.40;30.00
1381;DHT22;684;48.342;10.096;2023-03-25T06:19:22;8.40;30.00
1381;DHT22;684;48.342;10.096;2023-03-25T06:21:50;8.40;29.70
1381;DHT22;684;48.342;10.096;2023-03-25T06:24:18;8.70;29.90
1381;DHT22;684;48.342;10.096;2023-03-25T06:26:46;9.10;29.40
1381;DHT22;684;48.342;10.096;2023-03-25T06:29:13;9.30;27.30
1381;DHT22;684;48.342;10.096;2023-03-25T06:31:39;9.50;26.90
1381;DHT22;684;48.342;10.096;2023-03-25T06:34:07;10.00;25.30
1381;DHT22;684;48.342;10.096;2023-03-25T06:36:34;10.30;24.30
1381;DHT22;684;48.342;10.096;2023-03-25T06:39:01;10.70;23.60
1381;DHT22;684;48.342;10.096;2023-03-25T06:41:30;11.20;21.40
1381;DHT22;684;48.342;10.096;2023-03-25T06:44:01;11.30;21.00
1381;DHT22;684;48.342;10.096;2023-03-25T06:46:28;11.20;20.40
1381;DHT22;684;48.342;10.096;2023-03-25T06:48:55;11.40;21.00
1381;DHT22;684;48.342;10.096;2023-03-25T06:51:22;11.50;20.50
1381;DHT22;684;48.342;10.096;2023-03-25T06:53:48;12.60;19.10
1381;DHT22;684;48.342;10.096;2023-03-25T06:56:15;14.10;16.20
1381;DHT22;684;48.342;10.096;2023-03-25T06:58:42;15.50;12.90
1381;DHT22;684;48.342;10.096;2023-03-25T07:01:10;15.90;10.90
1381;DHT22;684;48.342;10.096;2023-03-25T07:03:37;15.70;11.00
1381;DHT22;684;48.342;10.096;2023-03-25T07:06:05;15.60;10.50
1381;DHT22;684;48.342;10.096;2023-03-25T07:08:32;15.20;10.90
1381;DHT22;684;48.342;10.096;2023-03-25T07:11:00;15.20;11.00
1381;DHT22;684;48.342;10.096;2023-03-25T07:13:27;14.50;11.50
1381;DHT22;684;48.342;10.096;2023-03-25T07:15:55;13.80;12.70
1381;DHT22;684;48.342;10.096;2023-03-25T07:18:24;13.30;14.40
1381;DHT22;684;48.342;10.096;2023-03-25T07:20:50;13.00;15.30
1381;DHT22;684;48.342;10.096;2023-03-25T07:23:17;12.70;16.20
1381;DHT22;684;48.342;10.096;2023-03-25T07:25:44;12.40;17.00
1381;DHT22;684;48.342;10.096;2023-03-25T07:28:11;12.10;18.10
1381;DHT22;684;48.342;10.096;2023-03-25T07:30:38;12.20;18.60
1381;DHT22;684;48.342;10.096;2023-03-25T07:33:05;12.60;18.00
1381;DHT22;684;48.342;10.096;2023-03-25T07:35:33;12.70;17.80
1381;DHT22;684;48.342;10.096;2023-03-25T07:38:00;12.60;17.40
1381;DHT22;684;48.342;10.096;2023-03-25T07:40:27;12.40;17.60
1381;DHT22;684;48.342;10.096;2023-03-25T07:42:54;12.20;17.90
1381;DHT22;684;48.342;10.096;2023-03-25T07:45:20;12.10;18.20
1381;DHT22;684;48.342;10.096;2023-03-25T07:47:47;12.10;17.80
1381;DHT22;684;48.342;10.096;2023-03-25T07:50:15;11.90;18.50
1381;DHT22;684;48.342;10.096;2023-03-25T07:52:43;11.70;19.40
1381;DHT22;684;48.342;10.096;2023-03-25T07:55:10;11.40;19.50
1381;DHT22;684;48.342;10.096;2023-03-25T07:57:39;11.20;20.00
1381;DHT22;684;48.342;10.096;2023-03-25T08:00:07;11.10;20.80
1381;DHT22;684;48.342;10.096;2023-03-25T08:02:35;11.00;20.70
1381;DHT22;684;48.342;10.096;2023-03-25T08:05:02;11.00;21.10
1381;DHT22;684;48.342;10.096;2023-03-25T08:07:30;11.10;21.20
1381;DHT22;684;48.342;10.096;2023-03-25T08:09:58;11.30;20.90
1381;DHT22;684;48.342;10.096;2023-03-25T08:12:25;11.40;20.20
1381;DHT22;684;48.342;10.096;2023-03-25T08:14:52;11.50;20.40
1381;DHT22;684;48.342;10.096;2023-03-25T08:17:18;12.60;19.40
1381;DHT22;684;48.342;10.096;2023-03-25T08:19:49;12.90;17.90
1381;DHT22;684;48.342;10.096;2023-03-25T08:22:16;13.10;17.70
1381;DHT22;684;48.342;10.096;2023-03-25T08:24:43;13.50;17.00
1381;DHT22;684;48.342;10.096;2023-03-25T08:27:11;13.70;16.00
1381;DHT22;684;48.342;10.096;2023-03-25T08:29:37;13.50;15.10
1381;DHT22;684;48.342;10.096;2023-03-25T08:32:04;13.30;15.50
1381;DHT22;684;48.342;10.096;2023-03-25T08:34:31;13.20;16.00
1381;DHT22;684;48.342;10.096;2023-03-25T08:37:04;12.90;16.60
1381;DHT22;684;48.342;10.096;2023-03-25T08:39:32;12.60;16.80
1381;DHT22;684;48.342;10.096;2023-03-25T08:42:04;12.40;17.20
1381;DHT22;684;48.342;10.096;2023-03-25T08:44:32;12.10;18.00
1381;DHT22;684;48.342;10.096;2023-03-25T08:46:59;11.90;18.50
1381;DHT22;684;48.342;10.096;2023-03-25T08:49:26;11.70;19.00
1381;DHT22;684;48.342;10.096;2023-03-25T08:51:52;11.50;19.70
1381;DHT22;684;48.342;10.096;2023-03-25T08:54:22;11.30;20.00
1381;DHT22;684;48.342;10.096;2023-03-25T08:56:49;11.20;20.30
1381;DHT22;684;48.342;10.096;2023-03-25T08:59:15;11.20;21.00
1381;DHT22;684;48.342;10.096;2023-03-25T09:01:43;11.10;21.20
1381;DHT22;684;48.342;10.096;2023-03-25T09:04:10;11.00;21.70
1381;DHT22;684;48.342;10.096;2023-03-25T09:06:37;11.00;22.10
1381;DHT22;684;48.342;10.096;2023-03-25T09:09:05;10.90;21.80
1381;DHT22;684;48.342;10.096;2023-03-25T09:11:35;10.80;21.80
1381;DHT22;684;48.342;10.096;2023-03-25T09:14:02;10.80;22.50
1381;DHT22;684;48.342;10.096;2023-03-25T09:16:29;10.70;22.90
1381;DHT22;684;48.342;10.096;2023-03-25T09:18:57;10.70;23.50
1381;DHT22;684;48.342;10.096;2023-03-25T09:21:24;10.70;23.40
1381;DHT22;684;48.342;10.096;2023-03-25T09:23:51;10.70;23.80
1381;DHT22;684;48.342;10.096;2023-03-25T09:26:18;10.70;24.10
1381;DHT22;684;48.342;10.096;2023-03-25T09:28:44;10.70;23.20
1381;DHT22;684;48.342;10.096;2023-03-25T09:31:12;10.70;23.70
1381;DHT22;684;48.342;10.096;2023-03-25T09:33:39;10.60;24.30
1381;DHT22;684;48.342;10.096;2023-03-25T09:36:08;10.50;24.20
1381;DHT22;684;48.342;10.096;2023-03-25T09:38:36;10.50;24.60
1381;DHT22;684;48.342;10.096;2023-03-25T09:41:12;10.50;25.30
1381;DHT22;684;48.342;10.096;2023-03-25T09:43:52;10.70;24.50
1381;DHT22;684;48.342;10.096;2023-03-25T09:46:22;11.20;23.00
1381;DHT22;684;48.342;10.096;2023-03-25T09:48:50;11.30;22.20
1381;DHT22;684;48.342;10.096;2023-03-25T09:51:22;11.30;22.30
1381;DHT22;684;48.342;10.096;2023-03-25T09:53:54;11.50;21.80
1381;DHT22;684;48.342;10.096;2023-03-25T09:56:25;11.60;21.50
1381;DHT22;684;48.342;10.096;2023-03-25T09:58:56;11.50;22.10
1381;DHT22;684;48.342;10.096;2023-03-25T10:01:32;11.50;21.50
1381;DHT22;684;48.342;10.096;2023-03-25T10:04:15;11.40;22.00
1381;DHT22;684;48.342;10.096;2023-03-25T10:06:53;11.60;22.00
1381;DHT22;684;48.342;10.096;2023-03-25T10:09:36;12.10;20.20
1381;DHT22;684;48.342;10.096;2023-03-25T10:12:11;13.10;19.80
1381;DHT22;684;48.342;10.096;2023-03-25T10:14:56;15.00;15.40
1381;DHT22;684;48.342;10.096;2023-03-25T10:17:29;14.90;13.80
1381;DHT22;684;48.342;10.096;2023-03-25T10:20:03;14.20;14.40
1381;DHT22;684;48.342;10.096;2023-03-25T10:22:37;13.80;15.90
1381;DHT22;684;48.342;10.096;2023-03-25T10:25:13;13.90;15.10
1381;DHT22;684;48.342;10.096;2023-03-25T10:27:43;13.60;15.40
1381;DHT22;684;48.342;10.096;2023-03-25T10:30:12;13.70;16.50
1381;DHT22;684;48.342;10.096;2023-03-25T10:32:43;14.70;14.40
1381;DHT22;684;48.342;10.096;2023-03-25T10:35:15;15.30;12.50
1381;DHT22;684;48.342;10.096;2023-03-25T10:37:46;15.70;12.10
1381;DHT22;684;48.342;10.096;2023-03-25T10:40:18;15.40;12.10
1381;DHT22;684;48.342;10.096;2023-03-25T10:42:54;15.60;12.80
1381;DHT22;684;48.342;10.096;2023-03-25T10:45:24;15.90;12.50
1381;DHT22;684;48.342;10.096;2023-03-25T10:47:53;15.80;12.40
1381;DHT22;684;48.342;10.096;2023-03-25T10:50:23;16.40;11.90
1381;DHT22;684;48.342;10.096;2023-03-25T10:52:52;17.30;11.00
1381;DHT22;684;48.342;10.096;2023-03-25T10:55:23;19.30;6.90
1381;DHT22;684;48.342;10.096;2023-03-25T10:57:51;20.00;4.40
1381;DHT22;684;48.342;10.096;2023-03-25T11:00:18;19.40;4.30
1381;DHT22;684;48.342;10.096;2023-03-25T11:02:48;18.40;5.40
1381;DHT22;684;48.342;10.096;2023-03-25T11:05:17;18.90;5.20
1381;DHT22;684;48.342;10.096;2023-03-25T11:07:47;18.00;6.50
1381;DHT22;684;48.342;10.096;2023-03-25T11:10:19;16.90;8.00
1381;DHT22;684;48.342;10.096;2023-03-25T11:12:49;16.40;8.70
1381;DHT22;684;48.342;10.096;2023-03-25T11:15:19;15.80;9.90
1381;DHT22;684;48.342;10.096;2023-03-25T11:17:53;16.60;10.00
1381;DHT22;684;48.342;10.096;2023-03-25T11:20:26;17.70;8.90
1381;DHT22;684;48.342;10.096;2023-03-25T11:23:01;18.60;6.90
1381;DHT22;684;48.342;10.096;2023-03-25T11:25:35;19.60;5.60
1381;DHT22;684;48.342;10.096;2023-03-25T11:28:10;19.80;4.20
1381;DHT22;684;48.342;10.096;2023-03-25T11:31:10;18.70;4.40
1381;DHT22;684;48.342;10.096;2023-03-25T11:33:37;18.90;6.40
1381;DHT22;684;48.342;10.096;2023-03-25T11:36:21;19.10;4.80
1381;DHT22;684;48.342;10.096;2023-03-25T11:38:53;19.20;4.50
1381;DHT22;684;48.342;10.096;2023-03-25T11:41:21;19.20;5.10
1381;DHT22;684;48.342;10.096;2023-03-25T11:43:48;19.20;4.80
1381;DHT22;684;48.342;10.096;2023-03-25T11:46:19;18.80;5.60
1381;DHT22;684;48.342;10.096;2023-03-25T11:48:47;18.00;5.40
1381;DHT22;684;48.342;10.096;2023-03-25T11:51:19;17.10;7.30
1381;DHT22;684;48.342;10.096;2023-03-25T11:53:49;16.60;8.40
1381;DHT22;684;48.342;10.096;2023-03-25T11:56:21;16.30;7.60
1381;DHT22;684;48.342;10.096;2023-03-25T11:58:49;16.00;9.60
1381;DHT22;684;48.342;10.096;2023-03-25T12:01:23;15.80;10.10
1381;DHT22;684;48.342;10.096;2023-03-25T12:04:05;15.70;9.60
1381;DHT22;684;48.342;10.096;2023-03-25T12:06:33;15.70;9.00
1381;DHT22;684;48.342;10.096;2023-03-25T12:09:00;15.70;9.30
1381;DHT22;684;48.342;10.096;2023-03-25T12:11:31;15.70;9.90
1381;DHT22;684;48.342;10.096;2023-03-25T12:14:16;15.60;8.90
1381;DHT22;684;48.342;10.096;2023-03-25T12:16:50;15.40;9.90
1381;DHT22;684;48.342;10.096;2023-03-25T12:19:28;15.20;9.60
1381;DHT22;684;48.342;10.096;2023-03-25T12:22:07;14.90;9.90
1381;DHT22;684;48.342;10.096;2023-03-25T12:24:44;14.70;10.50
1381;DHT22;684;48.342;10.096;2023-03-25T12:27:25;14.50;11.30
1381;DHT22;684;48.342;10.096;2023-03-25T12:30:01;14.30;11.70
1381;DHT22;684;48.342;10.096;2023-03-25T12:32:36;14.40;11.90
1381;DHT22;684;48.342;10.096;2023-03-25T12:35:17;14.30;12.20
1381;DHT22;684;48.342;10.096;2023-03-25T12:38:01;14.30;11.90
1381;DHT22;684;48.342;10.096;2023-03-25T12:40:37;14.20;11.50
1381;DHT22;684;48.342;10.096;2023-03-25T12:43:09;14.30;11.60
1381;DHT22;684;48.342;10.096;2023-03-25T12:46:01;14.40;11.90
1381;DHT22;684;48.342;10.096;2023-03-25T12:48:42;14.40;10.80
1381;DHT22;684;48.342;10.096;2023-03-25T12:51:17;14.40;10.50
1381;DHT22;684;48.342;10.096;2023-03-25T12:53:55;14.40;10.60
1381;DHT22;684;48.342;10.096;2023-03-25T12:56:35;14.30;10.50
1381;DHT22;684;48.342;10.096;2023-03-25T12:59:28;14.30;11.50
1381;DHT22;684;48.342;10.096;2023-03-25T13:02:08;14.40;12.80
1381;DHT22;684;48.342;10.096;2023-03-25T13:04:51;14.50;11.10
1381;DHT22;684;48.342;10.096;2023-03-25T13:07:24;14.40;10.60
1381;DHT22;684;48.342;10.096;2023-03-25T13:09:58;14.20;11.90
1381;DHT22;684;48.342;10.096;2023-03-25T13:12:31;14.30;12.20
1381;DHT22;684;48.342;10.096;2023-03-25T13:15:04;14.40;11.60
1381;DHT22;684;48.342;10.096;2023-03-25T13:17:37;14.40;11.30
1381;DHT22;684;48.342;10.096;2023-03-25T13:20:09;14.30;12.00
1381;DHT22;684;48.342;10.096;2023-03-25T13:22:40;14.30;12.40
1381;DHT22;684;48.342;10.096;2023-03-25T13:25:18;14.30;12.00
1381;DHT22;684;48.342;10.096;2023-03-25T13:27:46;14.30;12.10
1381;DHT22;684;48.342;10.096;2023-03-25T13:30:21;14.20;12.30
1381;DHT22;684;48.342;10.096;2023-03-25T13:32:53;14.30;13.20
1381;DHT22;684;48.342;10.096;2023-03-25T13:35:29;14.20;12.90
1381;DHT22;684;48.342;10.096;2023-03-25T13:38:02;14.10;13.10
1381;DHT22;684;48.342;10.096;2023-03-25T13:40:35;13.90;13.50
1381;DHT22;684;48.342;10.096;2023-03-25T13:43:06;13.90;14.30
1381;DHT22;684;48.342;10.096;2023-03-25T13:45:43;13.90;14.50
1381;DHT22;684;48.342;10.096;2023-03-25T13:48:14;13.90;14.70
1381;DHT22;684;48.342;10.096;2023-03-25T13:50:43;13.80;14.30
1381;DHT22;684;48.342;10.096;2023-03-25T13:53:16;13.70;14.20
1381;DHT22;684;48.342;10.096;2023-03-25T13:55:50;13.50;14.90
1381;DHT22;684;48.342;10.096;2023-03-25T13:58:47;13.40;16.40
1381;DHT22;684;48.342;10.096;2023-03-25T14:01:41;13.50;17.50
1381;DHT22;684;48.342;10.096;2023-03-25T14:10:36;13.30;17.10
1381;DHT22;684;48.342;10.096;2023-03-25T14:13:07;13.30;16.50
1381;DHT22;684;48.342;10.096;2023-03-25T14:15:38;13.40;17.10
1381;DHT22;684;48.342;10.096;2023-03-25T14:18:14;13.60;17.00
1381;DHT22;684;48.342;10.096;2023-03-25T14:20:42;13.60;16.80
1381;DHT22;684;48.342;10.096;2023-03-25T14:23:15;13.70;16.40
1381;DHT22;684;48.342;10.096;2023-03-25T14:25:47;13.60;16.00
1381;DHT22;684;48.342;10.096;2023-03-25T14:28:17;13.60;16.20
1381;DHT22;684;48.342;10.096;2023-03-25T14:31:05;13.50;16.20
1381;DHT22;684;48.342;10.096;2023-03-25T14:34:10;13.40;16.10
1381;DHT22;684;48.342;10.096;2023-03-25T14:37:08;13.50;16.00
1381;DHT22;684;48.342;10.096;2023-03-25T14:39:40;13.50;14.80
1381;DHT22;684;48.342;10.096;2023-03-25T14:42:22;13.60;14.50
1381;DHT22;684;48.342;10.096;2023-03-25T14:44:51;13.60;13.90
1381;DHT22;684;48.342;10.096;2023-03-25T14:47:30;13.50;13.90
1381;DHT22;684;48.342;10.096;2023-03-25T14:50:28;13.50;14.30
1381;DHT22;684;48.342;10.096;2023-03-25T14:52:56;13.60;14.80
1381;DHT22;684;48.342;10.096;2023-03-25T14:55:27;13.60;14.90
1381;DHT22;684;48.342;10.096;2023-03-25T14:57:58;13.60;14.90
1381;DHT22;684;48.342;10.096;2023-03-25T15:00:29;13.50;13.50
1381;DHT22;684;48.342;10.096;2023-03-25T15:03:00;13.50;14.00
1381;DHT22;684;48.342;10.096;2023-03-25T15:05:30;13.50;13.10
1381;DHT22;684;48.342;10.096;2023-03-25T15:07:59;13.50;13.40
1381;DHT22;684;48.342;10.096;2023-03-25T15:10:38;13.50;13.30
1381;DHT22;684;48.342;10.096;2023-03-25T15:13:09;13.40;12.90
1381;DHT22;684;48.342;10.096;2023-03-25T15:15:53;13.50;12.70
1381;DHT22;684;48.342;10.096;2023-03-25T15:21:23;13.40;11.70
1381;DHT22;684;48.342;10.096;2023-03-25T15:23:52;13.30;12.60
1381;DHT22;684;48.342;10.096;2023-03-25T15:26:27;13.20;12.70
1381;DHT22;684;48.342;10.096;2023-03-25T15:29:23;13.10;14.20
1381;DHT22;684;48.342;10.096;2023-03-25T15:32:05;13.00;16.00
1381;DHT22;684;48.342;10.096;2023-03-25T15:34:44;13.00;16.20
1381;DHT22;684;48.342;10.096;2023-03-25T15:37:31;13.10;16.10
1381;DHT22;684;48.342;10.096;2023-03-25T15:40:10;13.00;15.70
1381;DHT22;684;48.342;10.096;2023-03-25T15:43:14;12.90;15.30
1381;DHT22;684;48.342;10.096;2023-03-25T15:49:16;12.80;16.10
1381;DHT22;684;48.342;10.096;2023-03-25T15:52:05;12.60;15.80
1381;DHT22;684;48.342;10.096;2023-03-25T15:54:37;12.60;15.20
1381;DHT22;684;48.342;10.096;2023-03-25T15:57:13;12.60;14.70
1381;DHT22;684;48.342;10.096;2023-03-25T15:59:44;12.60;14.80
1381;DHT22;684;48.342;10.096;2023-03-25T16:02:21;12.60;14.80
1381;DHT22;684;48.342;10.096;2023-03-25T16:04:51;12.70;15.00
1381;DHT22;684;48.342;10.096;2023-03-25T16:07:22;12.70;15.40
1381;DHT22;684;48.342;10.096;2023-03-25T16:09:50;12.70;15.40
1381;DHT22;684;48.342;10.096;2023-03-25T16:12:19;12.70;16.20
1381;DHT22;684;48.342;10.096;2023-03-25T16:14:49;12.60;15.90
1381;DHT22;684;48.342;10.096;2023-03-25T16:17:17;12.50;16.50
1381;DHT22;684;48.342;10.096;2023-03-25T16:19:47;12.40;16.40
1381;DHT22;684;48.342;10.096;2023-03-25T16:22:19;12.20;15.40
1381;DHT22;684;48.342;10.096;2023-03-25T16:24:48;12.10;15.30
1381;DHT22;684;48.342;10.096;2023-03-25T16:27:21;12.00;15.50
1381;DHT22;684;48.342;10.096;2023-03-25T16:29:51;11.90;15.90
1381;DHT22;684;48.342;10.096;2023-03-25T16:32:20;11.90;16.20
1381;DHT22;684;48.342;10.096;2023-03-25T16:34:48;11.80;16.40
1381;DHT22;684;48.342;10.096;2023-03-25T16:37:15;11.80;16.70
1381;DHT22;684;48.342;10.096;2023-03-25T16:39:43;11.70;16.20
1381;DHT22;684;48.342;10.096;2023-03-25T16:42:19;11.70;16.60
1381;DHT22;684;48.342;10.096;2023-03-25T16:44:46;11.60;16.90
1381;DHT22;684;48.342;10.096;2023-03-25T16:47:15;11.60;18.10
1381;DHT22;684;48.342;10.096;2023-03-25T16:49:45;11.60;18.90
1381;DHT22;684;48.342;10.096;2023-03-25T16:52:15;11.60;19.40
1381;DHT22;684;48.342;10.096;2023-03-25T16:54:46;11.60;20.80
1381;DHT22;684;48.342;10.096;2023-03-25T16:57:34;11.60;21.70
1381;DHT22;684;48.342;10.096;2023-03-25T17:00:13;11.50;20.50